sensor_id;sensor_type;location;lat;lon;timestamp;P1;durP1;ratioP1;P2;durP2;ratioP2
10677;SDS011;5387;48.722;9.110;2023-11-21T00:00:55;8.00;;;2.17;;
10677;SDS011;5387;48.722;9.110;2023-11-21T00:03:25;7.23;;;2.53;;
10677;SDS011;5387;48.722;9.110;2023-11-21T00:05:53;7.73;;;2.13;;
10677;SDS011;5387;48.722;9.110;2023-11-21T00:08:19;5.87;;;2.40;;
10677;SDS011;5387;48.722;9.110;2023-11-21T00:10:46;5.63;;;2.37;;
10677;SDS011;5387;48.722;9.110;2023-11-21T00:13:14;5.70;;;2.13;;
10677;SDS011;5387;48.722;9.110;2023-11-21T00:15:40;6.97;;;2.13;;
10677;SDS011;5387;48.722;9.110;2023-11-21T00:18:07;5.00;;;1.77;;
10677;SDS011;5387;48.722;9.110;2023-11-21T00:20:36;2.77;;;1.80;;
10677;SDS011;5387;48.722;9.110;2023-11-21T00:23:03;4.97;;;1.97;;
10677;SDS011;5387;48.722;9.110;2023-11-21T00:25:30;3.23;;;1.83;;
10677;SDS011;5387;48.722;9.110;2023-11-21T00:27:57;2.00;;;1.80;;
10677;SDS011;5387;48.722;9.110;2023-11-21T00:30:24;6.37;;;1.77;;
10677;SDS011;5387;48.722;9.110;2023-11-21T00:32:51;6.00;;;2.20;;
10677;SDS011;5387;48.722;9.110;2023-11-21T00:35:18;7.83;;;2.13;;
10677;SDS011;5387;48.722;9.110;2023-11-21T00:37:46;9.23;;;2.30;;
10677;SDS011;5387;48.722;9.110;2023-11-21T00:40:14;3.63;;;2.07;;
10677;SDS011;5387;48.722;9.110;2023-11-21T00:42:44;4.23;;;1.80;;
10677;SDS011;5387;48.722;9.110;2023-11-21T00:45:11;9.30;;;2.00;;
10677;SDS011;5387;48.722;9.110;2023-11-21T00:47:38;3.20;;;1.90;;
10677;SDS011;5387;48.722;9.110;2023-11-21T00:50:05;1.70;;;1.60;;
10677;SDS011;5387;48.722;9.110;2023-11-21T00:52:32;5.50;;;1.97;;
10677;SDS011;5387;48.722;9.110;2023-11-21T00:55:01;6.50;;;1.60;;
10677;SDS011;5387;48.722;9.110;2023-11-21T00:57:28;13.47;;;2.30;;
10677;SDS011;5387;48.722;9.110;2023-11-21T00:59:55;2.83;;;1.90;;
10677;SDS011;5387;48.722;9.110;2023-11-21T01:02:22;2.97;;;2.00;;
10677;SDS011;5387;48.722;9.110;2023-11-21T01:04:48;3.30;;;1.67;;
10677;SDS011;5387;48.722;9.110;2023-11-21T01:07:15;2.33;;;1.70;;
10677;SDS011;5387;48.722;9.110;2023-11-21T01:09:42;5.23;;;1.80;;
10677;SDS011;5387;48.722;9.110;2023-11-21T01:12:11;5.27;;;2.33;;
10677;SDS011;5387;48.722;9.110;2023-11-21T01:14:37;2.73;;;1.83;;
10677;SDS011;5387;48.722;9.110;2023-11-21T01:17:04;3.77;;;1.60;;
10677;SDS011;5387;48.722;9.110;2023-11-21T01:19:31;4.00;;;1.50;;
10677;SDS011;5387;48.722;9.110;2023-11-21T01:21:58;2.70;;;1.33;;
10677;SDS011;5387;48.722;9.110;2023-11-21T01:24:24;4.90;;;1.47;;
10677;SDS011;5387;48.722;9.110;2023-11-21T01:26:51;8.53;;;1.80;;
10677;SDS011;5387;48.722;9.110;2023-11-21T01:29:19;5.80;;;2.00;;
10677;SDS011;5387;48.722;9.110;2023-11-21T01:31:46;7.43;;;1.63;;
10677;SDS011;5387;48.722;9.110;2023-11-21T01:34:13;6.50;;;2.00;;
10677;SDS011;5387;48.722;9.110;2023-11-21T01:36:40;7.10;;;2.00;;
10677;SDS011;5387;48.722;9.110;2023-11-21T01:39:06;3.27;;;1.53;;
10677;SDS011;5387;48.722;9.110;2023-11-21T01:41:36;1.40;;;1.30;;
10677;SDS011;5387;48.722;9.110;2023-11-21T01:44:03;2.27;;;1.37;;
10677;SDS011;5387;48.722;9.110;2023-11-21T01:46:34;2.70;;;1.37;;
10677;SDS011;5387;48.722;9.110;2023-11-21T01:49:01;5.17;;;1.30;;
10677;SDS011;5387;48.722;9.110;2023-11-21T01:51:28;6.40;;;1.57;;
10677;SDS011;5387;48.722;9.110;2023-11-21T01:53:56;1.20;;;1.10;;
10677;SDS011;5387;48.722;9.110;2023-11-21T01:56:24;2.77;;;1.40;;
10677;SDS011;5387;48.722;9.110;2023-11-21T01:58:51;2.73;;;1.37;;
10677;SDS011;5387;48.722;9.110;2023-11-21T02:01:19;7.03;;;1.50;;
10677;SDS011;5387;48.722;9.110;2023-11-21T02:03:47;2.93;;;1.40;;
10677;SDS011;5387;48.722;9.110;2023-11-21T02:06:14;1.37;;;1.27;;
10677;SDS011;5387;48.722;9.110;2023-11-21T02:08:40;5.40;;;1.43;;
10677;SDS011;5387;48.722;9.110;2023-11-21T02:11:09;2.27;;;1.30;;
10677;SDS011;5387;48.722;9.110;2023-11-21T02:13:37;7.20;;;1.20;;
10677;SDS011;5387;48.722;9.110;2023-11-21T02:16:08;1.33;;;1.20;;
10677;SDS011;5387;48.722;9.110;2023-11-21T02:18:35;7.07;;;1.20;;
10677;SDS011;5387;48.722;9.110;2023-11-21T02:21:05;2.20;;;1.13;;
10677;SDS011;5387;48.722;9.110;2023-11-21T02:23:34;2.30;;;1.10;;
10677;SDS011;5387;48.722;9.110;2023-11-21T02:26:00;1.40;;;1.30;;
10677;SDS011;5387;48.722;9.110;2023-11-21T02:28:29;2.00;;;0.90;;
10677;SDS011;5387;48.722;9.110;2023-11-21T02:30:55;1.17;;;1.07;;
10677;SDS011;5387;48.722;9.110;2023-11-21T02:33:24;2.20;;;1.30;;
10677;SDS011;5387;48.722;9.110;2023-11-21T02:35:50;3.70;;;1.00;;
10677;SDS011;5387;48.722;9.110;2023-11-21T02:38:18;2.53;;;1.30;;
10677;SDS011;5387;48.722;9.110;2023-11-21T02:40:46;1.07;;;1.00;;
10677;SDS011;5387;48.722;9.110;2023-11-21T02:43:14;1.53;;;1.03;;
10677;SDS011;5387;48.722;9.110;2023-11-21T02:45:40;1.70;;;1.00;;
10677;SDS011;5387;48.722;9.110;2023-11-21T02:48:07;1.17;;;0.90;;
10677;SDS011;5387;48.722;9.110;2023-11-21T02:50:34;1.10;;;1.10;;
10677;SDS011;5387;48.722;9.110;2023-11-21T02:53:02;1.30;;;1.20;;
10677;SDS011;5387;48.722;9.110;2023-11-21T02:55:30;2.10;;;0.93;;
10677;SDS011;5387;48.722;9.110;2023-11-21T02:58:01;1.23;;;1.13;;
10677;SDS011;5387;48.722;9.110;2023-11-21T03:00:28;2.43;;;1.40;;
10677;SDS011;5387;48.722;9.110;2023-11-21T03:02:55;1.10;;;1.00;;
10677;SDS011;5387;48.722;9.110;2023-11-21T03:05:22;2.77;;;1.00;;
10677;SDS011;5387;48.722;9.110;2023-11-21T03:07:49;3.40;;;1.30;;
10677;SDS011;5387;48.722;9.110;2023-11-21T03:10:16;1.90;;;1.23;;
10677;SDS011;5387;48.722;9.110;2023-11-21T03:12:43;1.80;;;1.20;;
10677;SDS011;5387;48.722;9.110;2023-11-21T03:15:11;1.43;;;1.00;;
10677;SDS011;5387;48.722;9.110;2023-11-21T03:17:38;2.10;;;1.07;;
10677;SDS011;5387;48.722;9.110;2023-11-21T03:20:06;0.87;;;0.87;;
10677;SDS011;5387;48.722;9.110;2023-11-21T03:22:36;2.67;;;1.20;;
10677;SDS011;5387;48.722;9.110;2023-11-21T03:25:03;2.83;;;1.00;;
10677;SDS011;5387;48.722;9.110;2023-11-21T03:27:30;1.67;;;1.17;;
10677;SDS011;5387;48.722;9.110;2023-11-21T03:29:58;2.37;;;1.30;;
10677;SDS011;5387;48.722;9.110;2023-11-21T03:32:26;1.03;;;0.93;;
10677;SDS011;5387;48.722;9.110;2023-11-21T03:34:53;2.83;;;0.90;;
10677;SDS011;5387;48.722;9.110;2023-11-21T03:37:21;1.00;;;1.00;;
10677;SDS011;5387;48.722;9.110;2023-11-21T03:39:48;3.70;;;1.10;;
10677;SDS011;5387;48.722;9.110;2023-11-21T03:42:15;1.90;;;1.20;;
10677;SDS011;5387;48.722;9.110;2023-11-21T03:44:42;0.80;;;0.80;;
10677;SDS011;5387;48.722;9.110;2023-11-21T03:47:09;0.93;;;0.87;;
10677;SDS011;5387;48.722;9.110;2023-11-21T03:49:37;0.63;;;0.63;;
10677;SDS011;5387;48.722;9.110;2023-11-21T03:52:05;5.30;;;1.10;;
10677;SDS011;5387;48.722;9.110;2023-11-21T03:54:32;0.90;;;0.80;;
10677;SDS011;5387;48.722;9.110;2023-11-21T03:57:01;0.90;;;0.90;;
10677;SDS011;5387;48.722;9.110;2023-11-21T03:59:28;4.40;;;0.90;;
10677;SDS011;5387;48.722;9.110;2023-11-21T04:01:55;0.70;;;0.70;;
10677;SDS011;5387;48.722;9.110;2023-11-21T04:04:22;2.57;;;1.20;;
10677;SDS011;5387;48.722;9.110;2023-11-21T04:06:50;1.00;;;1.00;;
10677;SDS011;5387;48.722;9.110;2023-11-21T04:09:18;1.13;;;1.03;;
10677;SDS011;5387;48.722;9.110;2023-11-21T04:11:45;2.83;;;1.10;;
10677;SDS011;5387;48.722;9.110;2023-11-21T04:14:12;1.23;;;1.13;;
10677;SDS011;5387;48.722;9.110;2023-11-21T04:16:39;2.07;;;1.10;;
10677;SDS011;5387;48.722;9.110;2023-11-21T04:19:07;1.63;;;1.30;;
10677;SDS011;5387;48.722;9.110;2023-11-21T04:21:35;0.90;;;0.90;;
10677;SDS011;5387;48.722;9.110;2023-11-21T04:24:03;2.33;;;1.20;;
10677;SDS011;5387;48.722;9.110;2023-11-21T04:26:31;1.57;;;0.90;;
10677;SDS011;5387;48.722;9.110;2023-11-21T04:28:58;0.70;;;0.70;;
10677;SDS011;5387;48.722;9.110;2023-11-21T04:31:25;3.60;;;1.10;;
10677;SDS011;5387;48.722;9.110;2023-11-21T04:33:51;3.57;;;1.10;;
10677;SDS011;5387;48.722;9.110;2023-11-21T04:36:18;0.90;;;0.90;;
10677;SDS011;5387;48.722;9.110;2023-11-21T04:38:45;2.43;;;1.00;;
10677;SDS011;5387;48.722;9.110;2023-11-21T04:41:14;1.30;;;1.20;;
10677;SDS011;5387;48.722;9.110;2023-11-21T04:43:40;2.33;;;0.90;;
10677;SDS011;5387;48.722;9.110;2023-11-21T04:46:08;1.03;;;1.00;;
10677;SDS011;5387;48.722;9.110;2023-11-21T04:48:35;3.10;;;1.00;;
10677;SDS011;5387;48.722;9.110;2023-11-21T04:51:02;2.53;;;1.17;;
10677;SDS011;5387;48.722;9.110;2023-11-21T04:53:30;1.17;;;0.90;;
10677;SDS011;5387;48.722;9.110;2023-11-21T04:55:57;0.70;;;0.70;;
10677;SDS011;5387;48.722;9.110;2023-11-21T04:58:25;2.83;;;1.00;;
10677;SDS011;5387;48.722;9.110;2023-11-21T05:00:52;0.90;;;0.90;;
10677;SDS011;5387;48.722;9.110;2023-11-21T05:03:18;2.77;;;1.10;;
10677;SDS011;5387;48.722;9.110;2023-11-21T05:05:45;1.13;;;0.93;;
10677;SDS011;5387;48.722;9.110;2023-11-21T05:08:12;1.47;;;1.00;;
10677;SDS011;5387;48.722;9.110;2023-11-21T05:10:39;3.30;;;1.10;;
10677;SDS011;5387;48.722;9.110;2023-11-21T05:13:06;0.80;;;0.80;;
10677;SDS011;5387;48.722;9.110;2023-11-21T05:15:36;1.00;;;1.00;;
10677;SDS011;5387;48.722;9.110;2023-11-21T05:18:04;1.03;;;0.80;;
10677;SDS011;5387;48.722;9.110;2023-11-21T05:20:31;2.00;;;0.87;;
10677;SDS011;5387;48.722;9.110;2023-11-21T05:22:58;0.90;;;0.83;;
10677;SDS011;5387;48.722;9.110;2023-11-21T05:25:25;1.17;;;0.80;;
10677;SDS011;5387;48.722;9.110;2023-11-21T05:27:51;0.90;;;0.90;;
10677;SDS011;5387;48.722;9.110;2023-11-21T05:30:19;0.97;;;0.80;;
10677;SDS011;5387;48.722;9.110;2023-11-21T05:32:48;3.10;;;0.93;;
10677;SDS011;5387;48.722;9.110;2023-11-21T05:35:15;0.77;;;0.77;;
10677;SDS011;5387;48.722;9.110;2023-11-21T05:37:42;0.90;;;0.90;;
10677;SDS011;5387;48.722;9.110;2023-11-21T05:40:10;0.70;;;0.70;;
10677;SDS011;5387;48.722;9.110;2023-11-21T05:42:38;0.70;;;0.70;;
10677;SDS011;5387;48.722;9.110;2023-11-21T05:45:06;4.40;;;1.00;;
10677;SDS011;5387;48.722;9.110;2023-11-21T05:47:36;1.20;;;1.10;;
10677;SDS011;5387;48.722;9.110;2023-11-21T05:50:06;1.00;;;1.00;;
10677;SDS011;5387;48.722;9.110;2023-11-21T05:52:37;0.90;;;0.90;;
10677;SDS011;5387;48.722;9.110;2023-11-21T05:55:05;0.90;;;0.90;;
10677;SDS011;5387;48.722;9.110;2023-11-21T05:57:33;2.57;;;1.10;;
10677;SDS011;5387;48.722;9.110;2023-11-21T06:00:01;3.20;;;1.20;;
10677;SDS011;5387;48.722;9.110;2023-11-21T06:02:36;1.43;;;1.00;;
10677;SDS011;5387;48.722;9.110;2023-11-21T06:05:03;1.10;;;1.10;;
10677;SDS011;5387;48.722;9.110;2023-11-21T06:07:32;1.57;;;1.10;;
10677;SDS011;5387;48.722;9.110;2023-11-21T06:09:59;2.57;;;1.03;;
10677;SDS011;5387;48.722;9.110;2023-11-21T06:12:27;1.70;;;1.10;;
10677;SDS011;5387;48.722;9.110;2023-11-21T06:14:54;1.33;;;1.17;;
10677;SDS011;5387;48.722;9.110;2023-11-21T06:17:21;1.00;;;1.00;;
10677;SDS011;5387;48.722;9.110;2023-11-21T06:19:49;1.30;;;1.00;;
10677;SDS011;5387;48.722;9.110;2023-11-21T06:22:19;2.47;;;1.13;;
10677;SDS011;5387;48.722;9.110;2023-11-21T06:24:46;2.73;;;1.30;;
10677;SDS011;5387;48.722;9.110;2023-11-21T06:27:12;2.73;;;1.10;;
10677;SDS011;5387;48.722;9.110;2023-11-21T06:29:39;1.10;;;1.10;;
10677;SDS011;5387;48.722;9.110;2023-11-21T06:32:07;1.13;;;1.13;;
10677;SDS011;5387;48.722;9.110;2023-11-21T06:34:34;2.77;;;1.27;;
10677;SDS011;5387;48.722;9.110;2023-11-21T06:37:01;1.30;;;1.07;;
10677;SDS011;5387;48.722;9.110;2023-11-21T06:39:29;1.50;;;1.23;;
10677;SDS011;5387;48.722;9.110;2023-11-21T06:41:56;2.10;;;1.30;;
10677;SDS011;5387;48.722;9.110;2023-11-21T06:44:24;1.43;;;1.20;;
10677;SDS011;5387;48.722;9.110;2023-11-21T06:46:51;1.30;;;1.20;;
10677;SDS011;5387;48.722;9.110;2023-11-21T06:49:18;1.50;;;1.20;;
10677;SDS011;5387;48.722;9.110;2023-11-21T06:51:45;1.30;;;1.20;;
10677;SDS011;5387;48.722;9.110;2023-11-21T06:54:12;1.20;;;1.10;;
10677;SDS011;5387;48.722;9.110;2023-11-21T06:56:41;2.50;;;1.50;;
10677;SDS011;5387;48.722;9.110;2023-11-21T06:59:07;3.53;;;2.13;;
10677;SDS011;5387;48.722;9.110;2023-11-21T07:01:35;1.77;;;1.67;;
10677;SDS011;5387;48.722;9.110;2023-11-21T07:04:04;3.33;;;2.13;;
10677;SDS011;5387;48.722;9.110;2023-11-21T07:06:31;1.83;;;1.63;;
10677;SDS011;5387;48.722;9.110;2023-11-21T07:08:58;1.20;;;1.20;;
10677;SDS011;5387;48.722;9.110;2023-11-21T07:11:26;1.20;;;1.20;;
10677;SDS011;5387;48.722;9.110;2023-11-21T07:13:54;1.63;;;1.53;;
10677;SDS011;5387;48.722;9.110;2023-11-21T07:16:21;1.00;;;1.00;;
10677;SDS011;5387;48.722;9.110;2023-11-21T07:18:48;2.70;;;1.20;;
10677;SDS011;5387;48.722;9.110;2023-11-21T07:21:15;0.97;;;0.97;;
10677;SDS011;5387;48.722;9.110;2023-11-21T07:23:42;0.90;;;0.90;;
10677;SDS011;5387;48.722;9.110;2023-11-21T07:26:09;1.33;;;1.23;;
10677;SDS011;5387;48.722;9.110;2023-11-21T07:28:36;1.83;;;0.93;;
10677;SDS011;5387;48.722;9.110;2023-11-21T07:31:04;1.33;;;1.10;;
10677;SDS011;5387;48.722;9.110;2023-11-21T07:33:31;2.03;;;1.10;;
10677;SDS011;5387;48.722;9.110;2023-11-21T07:35:58;1.27;;;1.23;;
10677;SDS011;5387;48.722;9.110;2023-11-21T07:38:25;1.30;;;1.20;;
10677;SDS011;5387;48.722;9.110;2023-11-21T07:40:53;2.20;;;1.40;;
10677;SDS011;5387;48.722;9.110;2023-11-21T07:43:20;5.40;;;1.73;;
10677;SDS011;5387;48.722;9.110;2023-11-21T07:45:47;2.77;;;1.60;;
10677;SDS011;5387;48.722;9.110;2023-11-21T07:48:15;3.40;;;1.23;;
10677;SDS011;5387;48.722;9.110;2023-11-21T07:50:42;1.97;;;1.40;;
10677;SDS011;5387;48.722;9.110;2023-11-21T07:53:09;6.30;;;1.47;;
10677;SDS011;5387;48.722;9.110;2023-11-21T07:55:35;1.17;;;1.17;;
10677;SDS011;5387;48.722;9.110;2023-11-21T07:58:03;1.37;;;1.30;;
10677;SDS011;5387;48.722;9.110;2023-11-21T08:00:29;1.23;;;1.13;;
10677;SDS011;5387;48.722;9.110;2023-11-21T08:02:56;1.23;;;1.17;;
10677;SDS011;5387;48.722;9.110;2023-11-21T08:05:24;2.17;;;1.30;;
10677;SDS011;5387;48.722;9.110;2023-11-21T08:07:51;1.77;;;1.30;;
10677;SDS011;5387;48.722;9.110;2023-11-21T08:10:18;4.07;;;1.60;;
10677;SDS011;5387;48.722;9.110;2023-11-21T08:12:46;1.50;;;1.40;;
10677;SDS011;5387;48.722;9.110;2023-11-21T08:15:13;3.33;;;1.50;;
10677;SDS011;5387;48.722;9.110;2023-11-21T08:17:40;1.87;;;1.57;;
10677;SDS011;5387;48.722;9.110;2023-11-21T08:20:07;1.33;;;1.30;;
10677;SDS011;5387;48.722;9.110;2023-11-21T08:22:37;5.33;;;1.50;;
10677;SDS011;5387;48.722;9.110;2023-11-21T08:25:06;1.60;;;1.50;;
10677;SDS011;5387;48.722;9.110;2023-11-21T08:27:33;3.10;;;1.67;;
10677;SDS011;5387;48.722;9.110;2023-11-21T08:30:00;3.77;;;1.60;;
10677;SDS011;5387;48.722;9.110;2023-11-21T08:32:28;5.47;;;1.50;;
10677;SDS011;5387;48.722;9.110;2023-11-21T08:34:55;1.53;;;1.43;;
10677;SDS011;5387;48.722;9.110;2023-11-21T08:37:22;5.17;;;1.43;;
10677;SDS011;5387;48.722;9.110;2023-11-21T08:39:50;4.37;;;1.40;;
10677;SDS011;5387;48.722;9.110;2023-11-21T08:42:18;1.93;;;1.30;;
10677;SDS011;5387;48.722;9.110;2023-11-21T08:44:44;5.50;;;1.03;;
10677;SDS011;5387;48.722;9.110;2023-11-21T08:47:11;1.70;;;1.30;;
10677;SDS011;5387;48.722;9.110;2023-11-21T08:49:38;1.40;;;1.27;;
10677;SDS011;5387;48.722;9.110;2023-11-21T08:52:05;2.13;;;1.20;;
10677;SDS011;5387;48.722;9.110;2023-11-21T08:54:32;1.87;;;1.13;;
10677;SDS011;5387;48.722;9.110;2023-11-21T08:57:00;1.27;;;1.20;;
10677;SDS011;5387;48.722;9.110;2023-11-21T08:59:27;1.90;;;1.10;;
10677;SDS011;5387;48.722;9.110;2023-11-21T09:01:54;1.10;;;1.10;;
10677;SDS011;5387;48.722;9.110;2023-11-21T09:04:21;1.10;;;1.10;;
10677;SDS011;5387;48.722;9.110;2023-11-21T09:06:48;2.10;;;1.07;;
10677;SDS011;5387;48.722;9.110;2023-11-21T09:09:14;1.10;;;1.00;;
10677;SDS011;5387;48.722;9.110;2023-11-21T09:11:41;1.27;;;1.03;;
10677;SDS011;5387;48.722;9.110;2023-11-21T09:14:10;1.20;;;1.10;;
10677;SDS011;5387;48.722;9.110;2023-11-21T09:16:38;0.93;;;0.90;;
10677;SDS011;5387;48.722;9.110;2023-11-21T09:19:05;1.13;;;0.93;;
10677;SDS011;5387;48.722;9.110;2023-11-21T09:21:31;1.37;;;1.37;;
10677;SDS011;5387;48.722;9.110;2023-11-21T09:23:59;1.23;;;1.23;;
10677;SDS011;5387;48.722;9.110;2023-11-21T09:26:26;0.93;;;0.90;;
10677;SDS011;5387;48.722;9.110;2023-11-21T09:28:54;1.10;;;1.10;;
10677;SDS011;5387;48.722;9.110;2023-11-21T09:31:23;1.00;;;1.00;;
10677;SDS011;5387;48.722;9.110;2023-11-21T09:33:50;1.10;;;1.10;;
10677;SDS011;5387;48.722;9.110;2023-11-21T09:36:16;4.87;;;1.20;;
10677;SDS011;5387;48.722;9.110;2023-11-21T09:38:43;4.37;;;0.90;;
10677;SDS011;5387;48.722;9.110;2023-11-21T09:41:11;0.80;;;0.80;;
10677;SDS011;5387;48.722;9.110;2023-11-21T09:43:45;0.90;;;0.90;;
10677;SDS011;5387;48.722;9.110;2023-11-21T09:46:13;1.00;;;1.00;;
10677;SDS011;5387;48.722;9.110;2023-11-21T09:48:46;2.13;;;1.00;;
10677;SDS011;5387;48.722;9.110;2023-11-21T09:51:17;1.53;;;1.43;;
10677;SDS011;5387;48.722;9.110;2023-11-21T09:53:46;3.07;;;1.20;;
10677;SDS011;5387;48.722;9.110;2023-11-21T09:56:17;1.10;;;1.10;;
10677;SDS011;5387;48.722;9.110;2023-11-21T09:58:50;1.20;;;1.10;;
10677;SDS011;5387;48.722;9.110;2023-11-21T10:01:18;1.73;;;1.00;;
10677;SDS011;5387;48.722;9.110;2023-11-21T10:03:48;2.63;;;1.10;;
10677;SDS011;5387;48.722;9.110;2023-11-21T10:06:15;0.90;;;0.90;;
10677;SDS011;5387;48.722;9.110;2023-11-21T10:08:42;2.70;;;1.67;;
10677;SDS011;5387;48.722;9.110;2023-11-21T10:11:09;2.07;;;1.50;;
10677;SDS011;5387;48.722;9.110;2023-11-21T10:13:39;1.50;;;1.40;;
10677;SDS011;5387;48.722;9.110;2023-11-21T10:16:07;1.83;;;1.10;;
10677;SDS011;5387;48.722;9.110;2023-11-21T10:18:38;2.63;;;1.60;;
10677;SDS011;5387;48.722;9.110;2023-11-21T10:21:07;5.57;;;1.20;;
10677;SDS011;5387;48.722;9.110;2023-11-21T10:23:35;1.80;;;1.30;;
10677;SDS011;5387;48.722;9.110;2023-11-21T10:26:02;1.23;;;1.10;;
10677;SDS011;5387;48.722;9.110;2023-11-21T10:28:30;2.10;;;1.47;;
10677;SDS011;5387;48.722;9.110;2023-11-21T10:31:02;1.70;;;1.60;;
10677;SDS011;5387;48.722;9.110;2023-11-21T10:33:29;2.00;;;1.90;;
10677;SDS011;5387;48.722;9.110;2023-11-21T10:35:56;1.30;;;1.20;;
10677;SDS011;5387;48.722;9.110;2023-11-21T10:38:24;1.13;;;1.13;;
10677;SDS011;5387;48.722;9.110;2023-11-21T10:40:52;2.87;;;1.50;;
10677;SDS011;5387;48.722;9.110;2023-11-21T10:43:20;1.40;;;1.30;;
10677;SDS011;5387;48.722;9.110;2023-11-21T10:45:51;2.33;;;2.03;;
10677;SDS011;5387;48.722;9.110;2023-11-21T10:48:18;2.60;;;1.60;;
10677;SDS011;5387;48.722;9.110;2023-11-21T10:50:46;1.87;;;1.60;;
10677;SDS011;5387;48.722;9.110;2023-11-21T10:53:13;1.73;;;1.63;;
10677;SDS011;5387;48.722;9.110;2023-11-21T10:55:42;3.53;;;1.90;;
10677;SDS011;5387;48.722;9.110;2023-11-21T10:58:09;2.27;;;2.10;;
10677;SDS011;5387;48.722;9.110;2023-11-21T11:00:39;4.50;;;1.40;;
10677;SDS011;5387;48.722;9.110;2023-11-21T11:03:08;1.37;;;1.27;;
10677;SDS011;5387;48.722;9.110;2023-11-21T11:05:39;1.33;;;1.23;;
10677;SDS011;5387;48.722;9.110;2023-11-21T11:08:08;1.23;;;1.20;;
10677;SDS011;5387;48.722;9.110;2023-11-21T11:10:37;1.70;;;1.60;;
10677;SDS011;5387;48.722;9.110;2023-11-21T11:13:06;1.60;;;1.50;;
10677;SDS011;5387;48.722;9.110;2023-11-21T11:15:33;2.63;;;1.60;;
10677;SDS011;5387;48.722;9.110;2023-11-21T11:18:00;2.10;;;1.90;;
10677;SDS011;5387;48.722;9.110;2023-11-21T11:20:31;1.47;;;1.37;;
10677;SDS011;5387;48.722;9.110;2023-11-21T11:23:09;3.30;;;1.30;;
10677;SDS011;5387;48.722;9.110;2023-11-21T11:25:53;2.07;;;1.57;;
10677;SDS011;5387;48.722;9.110;2023-11-21T11:28:38;2.40;;;1.60;;
10677;SDS011;5387;48.722;9.110;2023-11-21T11:31:14;1.60;;;1.20;;
10677;SDS011;5387;48.722;9.110;2023-11-21T11:33:51;2.50;;;1.30;;
10677;SDS011;5387;48.722;9.110;2023-11-21T11:36:25;1.20;;;1.10;;
10677;SDS011;5387;48.722;9.110;2023-11-21T11:38:57;1.90;;;1.50;;
10677;SDS011;5387;48.722;9.110;2023-11-21T11:41:27;1.60;;;1.50;;
10677;SDS011;5387;48.722;9.110;2023-11-21T11:43:58;2.37;;;1.70;;
10677;SDS011;5387;48.722;9.110;2023-11-21T11:46:40;1.60;;;1.20;;
10677;SDS011;5387;48.722;9.110;2023-11-21T11:49:08;2.00;;;1.63;;
10677;SDS011;5387;48.722;9.110;2023-11-21T11:51:36;3.30;;;1.67;;
10677;SDS011;5387;48.722;9.110;2023-11-21T11:54:03;1.97;;;1.63;;
10677;SDS011;5387;48.722;9.110;2023-11-21T11:56:32;1.80;;;1.60;;
10677;SDS011;5387;48.722;9.110;2023-11-21T11:59:02;1.37;;;1.33;;
10677;SDS011;5387;48.722;9.110;2023-11-21T12:01:32;1.40;;;1.30;;
10677;SDS011;5387;48.722;9.110;2023-11-21T12:06:56;1.63;;;1.43;;
10677;SDS011;5387;48.722;9.110;2023-11-21T12:09:27;1.70;;;1.60;;
10677;SDS011;5387;48.722;9.110;2023-11-21T12:11:56;1.40;;;1.40;;
10677;SDS011;5387;48.722;9.110;2023-11-21T12:14:24;1.20;;;1.20;;
10677;SDS011;5387;48.722;9.110;2023-11-21T12:16:51;1.60;;;1.50;;
10677;SDS011;5387;48.722;9.110;2023-11-21T12:19:19;1.37;;;1.33;;
10677;SDS011;5387;48.722;9.110;2023-11-21T12:21:47;1.30;;;1.30;;
10677;SDS011;5387;48.722;9.110;2023-11-21T12:24:15;1.47;;;1.37;;
10677;SDS011;5387;48.722;9.110;2023-11-21T12:26:42;1.23;;;1.23;;
10677;SDS011;5387;48.722;9.110;2023-11-21T12:29:10;1.33;;;1.30;;
10677;SDS011;5387;48.722;9.110;2023-11-21T12:31:38;1.50;;;1.40;;
10677;SDS011;5387;48.722;9.110;2023-11-21T12:34:05;3.03;;;1.27;;
10677;SDS011;5387;48.722;9.110;2023-11-21T12:36:34;1.50;;;1.40;;
10677;SDS011;5387;48.722;9.110;2023-11-21T12:39:01;1.10;;;1.10;;
10677;SDS011;5387;48.722;9.110;2023-11-21T12:41:28;1.20;;;1.13;;
10677;SDS011;5387;48.722;9.110;2023-11-21T12:43:56;1.00;;;1.00;;
10677;SDS011;5387;48.722;9.110;2023-11-21T12:46:23;1.00;;;1.00;;
10677;SDS011;5387;48.722;9.110;2023-11-21T12:48:55;1.00;;;1.00;;
10677;SDS011;5387;48.722;9.110;2023-11-21T12:51:23;1.00;;;1.00;;
10677;SDS011;5387;48.722;9.110;2023-11-21T12:53:50;1.37;;;1.30;;
10677;SDS011;5387;48.722;9.110;2023-11-21T12:56:17;1.23;;;1.13;;
10677;SDS011;5387;48.722;9.110;2023-11-21T12:58:48;1.97;;;1.20;;
10677;SDS011;5387;48.722;9.110;2023-11-21T13:01:15;1.17;;;1.10;;
10677;SDS011;5387;48.722;9.110;2023-11-21T13:03:45;1.10;;;1.10;;
10677;SDS011;5387;48.722;9.110;2023-11-21T13:06:15;1.77;;;1.30;;
10677;SDS011;5387;48.722;9.110;2023-11-21T13:08:43;1.50;;;1.40;;
10677;SDS011;5387;48.722;9.110;2023-11-21T13:11:10;1.80;;;1.70;;
10677;SDS011;5387;48.722;9.110;2023-11-21T13:13:40;2.00;;;1.80;;
10677;SDS011;5387;48.722;9.110;2023-11-21T13:16:07;1.70;;;1.60;;
10677;SDS011;5387;48.722;9.110;2023-11-21T13:18:35;2.33;;;2.13;;
10677;SDS011;5387;48.722;9.110;2023-11-21T13:21:03;1.97;;;1.87;;
10677;SDS011;5387;48.722;9.110;2023-11-21T13:23:36;4.30;;;2.10;;
10677;SDS011;5387;48.722;9.110;2023-11-21T13:26:03;1.97;;;1.83;;
10677;SDS011;5387;48.722;9.110;2023-11-21T13:28:31;3.37;;;2.10;;
10677;SDS011;5387;48.722;9.110;2023-11-21T13:30:59;2.57;;;2.20;;
10677;SDS011;5387;48.722;9.110;2023-11-21T13:33:34;4.47;;;1.97;;
10677;SDS011;5387;48.722;9.110;2023-11-21T13:36:03;1.77;;;1.40;;
10677;SDS011;5387;48.722;9.110;2023-11-21T13:38:32;1.37;;;1.30;;
10677;SDS011;5387;48.722;9.110;2023-11-21T13:41:02;1.40;;;1.30;;
10677;SDS011;5387;48.722;9.110;2023-11-21T13:43:32;1.00;;;1.00;;
10677;SDS011;5387;48.722;9.110;2023-11-21T13:45:59;1.23;;;1.03;;
10677;SDS011;5387;48.722;9.110;2023-11-21T13:48:33;1.30;;;1.20;;
10677;SDS011;5387;48.722;9.110;2023-11-21T13:51:07;0.97;;;0.97;;
10677;SDS011;5387;48.722;9.110;2023-11-21T13:53:40;1.03;;;1.03;;
10677;SDS011;5387;48.722;9.110;2023-11-21T13:56:09;1.10;;;1.10;;
10677;SDS011;5387;48.722;9.110;2023-11-21T13:58:37;1.07;;;1.07;;
10677;SDS011;5387;48.722;9.110;2023-11-21T14:01:11;1.10;;;1.10;;
10677;SDS011;5387;48.722;9.110;2023-11-21T14:03:57;1.10;;;1.10;;
10677;SDS011;5387;48.722;9.110;2023-11-21T14:06:33;1.23;;;1.10;;
10677;SDS011;5387;48.722;9.110;2023-11-21T14:09:07;1.07;;;1.07;;
10677;SDS011;5387;48.722;9.110;2023-11-21T14:11:35;1.40;;;1.30;;
10677;SDS011;5387;48.722;9.110;2023-11-21T14:14:03;3.13;;;1.47;;
10677;SDS011;5387;48.722;9.110;2023-11-21T14:16:30;1.20;;;1.20;;
10677;SDS011;5387;48.722;9.110;2023-11-21T14:18:57;1.60;;;1.50;;
10677;SDS011;5387;48.722;9.110;2023-11-21T14:21:30;1.53;;;1.43;;
10677;SDS011;5387;48.722;9.110;2023-11-21T14:23:57;8.70;;;1.93;;
10677;SDS011;5387;48.722;9.110;2023-11-21T14:26:24;3.20;;;1.80;;
10677;SDS011;5387;48.722;9.110;2023-11-21T14:28:52;2.00;;;1.90;;
10677;SDS011;5387;48.722;9.110;2023-11-21T14:31:19;2.90;;;2.37;;
10677;SDS011;5387;48.722;9.110;2023-11-21T14:33:46;7.63;;;2.03;;
10677;SDS011;5387;48.722;9.110;2023-11-21T14:36:12;6.97;;;2.20;;
10677;SDS011;5387;48.722;9.110;2023-11-21T14:38:42;2.40;;;2.20;;
10677;SDS011;5387;48.722;9.110;2023-11-21T14:41:09;5.33;;;1.97;;
10677;SDS011;5387;48.722;9.110;2023-11-21T14:43:36;2.17;;;2.00;;
10677;SDS011;5387;48.722;9.110;2023-11-21T14:46:05;2.43;;;2.23;;
10677;SDS011;5387;48.722;9.110;2023-11-21T14:48:35;7.20;;;1.90;;
10677;SDS011;5387;48.722;9.110;2023-11-21T14:51:07;2.63;;;2.13;;
10677;SDS011;5387;48.722;9.110;2023-11-21T14:53:52;2.37;;;2.03;;
10677;SDS011;5387;48.722;9.110;2023-11-21T14:56:19;2.23;;;2.03;;
10677;SDS011;5387;48.722;9.110;2023-11-21T14:58:51;4.03;;;2.50;;
10677;SDS011;5387;48.722;9.110;2023-11-21T15:01:19;4.63;;;2.37;;
10677;SDS011;5387;48.722;9.110;2023-11-21T15:03:58;2.43;;;2.20;;
10677;SDS011;5387;48.722;9.110;2023-11-21T15:06:24;3.77;;;2.60;;
10677;SDS011;5387;48.722;9.110;2023-11-21T15:08:55;2.83;;;2.63;;